This is the latest recevied weather packets stored in our database for station/object OE5RPP. If no packets are shown the sender has not sent any weather packets the latest 10 day(s).
| Time | Temp. | Humidity | Pressure | Rain* | Wind** | Luminosity | Snow |
|---|---|---|---|---|---|---|---|
| 1788404232 | 15.56° C | 60% | 1024.9 hPa | 0 mm | - | - | - |
| 1788403031 | 15° C | 58% | 1024.9 hPa | 0 mm | - | - | - |
| 1788400633 | 15° C | 57% | 1024.9 hPa | 0 mm | - | - | - |
| 1788381431 | 16.11° C | 45% | 1023.9 hPa | 0 mm | - | - | - |
| 1788380236 | 16.11° C | 43% | 1023.9 hPa | 0 mm | - | - | - |
| 1788376032 | 17.22° C | 32% | 1023.9 hPa | 0 mm | - | - | - |
| 1788370631 | 20° C | 20% | 1022.9 hPa | 0 mm | - | - | - |
| 1788370031 | 20.56° C | 20% | 1022.9 hPa | 0 mm | - | - | - |
| 1788365832 | 23.33° C | 18% | 1022.9 hPa | 0 mm | - | - | - |
| 1788359830 | 25° C | 17% | 1022.9 hPa | 0 mm | - | - | - |
| 1788356831 | 25° C | 17% | 1023.9 hPa | 0 mm | - | - | - |
| 1788356230 | 24.44° C | 18% | 1023.9 hPa | 0 mm | - | - | - |
| 1788355631 | 23.89° C | 18% | 1023.9 hPa | 0 mm | - | - | - |
| 1788355032 | 24.44° C | 18% | 1023.9 hPa | 0 mm | - | - | - |
| 1788354432 | 24.44° C | 18% | 1023.9 hPa | 0 mm | - | - | - |
| 1788353832 | 24.44° C | 18% | 1023.9 hPa | 0 mm | - | - | - |
| 1788353232 | 24.44° C | 18% | 1023.9 hPa | 0 mm | - | - | - |
| 1788352631 | 25° C | 17% | 1023.9 hPa | 0 mm | - | - | - |
| 1788352031 | 25° C | 17% | 1023.9 hPa | 0 mm | - | - | - |
| 1788351432 | 25° C | 18% | 1023.9 hPa | 0 mm | - | - | - |
| 1788350832 | 24.44° C | 18% | 1023.9 hPa | 0 mm | - | - | - |
| 1788350232 | 24.44° C | 18% | 1023.9 hPa | 0 mm | - | - | - |
| 1788349031 | 25.56° C | 17% | 1023.9 hPa | 0 mm | - | - | - |
| 1788348431 | 25.56° C | 17% | 1023.9 hPa | 0 mm | - | - | - |
| 1788347830 | 25° C | 18% | 1023.9 hPa | 0 mm | - | - | - |
* Rain latest hour (hover to see other rain measurements)
** Current wind speed in m/s (hover to see current wind gust speed)